createdAt,value
2018-07-29T00:01:51.293Z,20.78
2018-07-29T00:06:51.837Z,20.58
2018-07-29T00:11:51.043Z,20.58
2018-07-29T00:16:51.346Z,20.68
2018-07-29T00:21:51.814Z,20.48
2018-07-29T00:26:51.385Z,20.68
2018-07-29T00:31:51.673Z,20.78
2018-07-29T00:36:51.110Z,20.68
2018-07-29T00:41:51.344Z,20.98
2018-07-29T00:46:51.693Z,20.78
2018-07-29T00:51:51.073Z,20.58
2018-07-29T00:56:51.663Z,20.58
2018-07-29T01:01:50.998Z,20.68
2018-07-29T01:06:51.488Z,20.68
2018-07-29T01:11:51.694Z,20.58
2018-07-29T01:16:50.974Z,20.48
2018-07-29T01:21:51.452Z,20.38
2018-07-29T01:26:51.041Z,20.48
2018-07-29T01:31:51.326Z,20.38
2018-07-29T01:36:51.774Z,20.48
2018-07-29T01:41:51.000Z,20.58
2018-07-29T01:46:51.285Z,20.58
2018-07-29T01:51:51.756Z,20.48
2018-07-29T01:56:51.354Z,20.38
2018-07-29T02:01:51.610Z,20.28
2018-07-29T02:06:51.136Z,20.28
2018-07-29T02:11:51.340Z,20.38
2018-07-29T02:16:51.630Z,20.28
2018-07-29T02:21:51.095Z,20.28
2018-07-29T02:26:51.671Z,20.28
2018-07-29T02:31:51.091Z,20.28
2018-07-29T02:36:51.500Z,20.28
2018-07-29T02:41:51.722Z,20.28
2018-07-29T02:46:50.988Z,20.28
2018-07-29T02:51:51.510Z,20.28
2018-07-29T02:56:51.136Z,20.38
2018-07-29T03:01:51.365Z,20.48
2018-07-29T03:06:50.963Z,20.28
2018-07-29T03:11:51.154Z,20.38
2018-07-29T03:16:51.650Z,20.08
2018-07-29T03:21:51.862Z,19.98
2018-07-29T03:26:51.456Z,19.88
2018-07-29T03:31:51.713Z,19.88
2018-07-29T03:36:51.195Z,19.78
2018-07-29T03:41:51.417Z,19.88
2018-07-29T03:46:51.708Z,19.68
2018-07-29T03:51:51.186Z,19.68
2018-07-29T03:56:51.730Z,19.58
2018-07-29T04:01:51.026Z,19.58
2018-07-29T04:06:51.540Z,19.48
2018-07-29T04:11:51.748Z,19.68
2018-07-29T04:16:51.041Z,19.68
2018-07-29T04:21:51.486Z,19.78
2018-07-29T04:26:51.099Z,19.68
2018-07-29T04:31:51.372Z,20.28
2018-07-29T04:36:51.847Z,20.18
2018-07-29T04:41:51.046Z,19.88
2018-07-29T04:46:51.315Z,19.68
2018-07-29T04:51:51.781Z,19.68
2018-07-29T04:56:51.401Z,19.88
2018-07-29T05:01:51.686Z,19.78
2018-07-29T05:06:51.221Z,19.88
2018-07-29T05:11:50.956Z,20.38
2018-07-29T05:16:51.233Z,19.98
2018-07-29T05:21:51.711Z,19.98
2018-07-29T05:26:51.281Z,19.88
2018-07-29T05:31:51.582Z,19.88
2018-07-29T05:36:51.159Z,20.28
2018-07-29T05:41:51.337Z,20.28
2018-07-29T05:46:51.651Z,20.98
2018-07-29T05:51:51.142Z,21.28
2018-07-29T05:56:51.723Z,21.18
2018-07-29T06:01:50.980Z,21.58
2018-07-29T06:06:51.501Z,21.58
2018-07-29T06:11:51.708Z,21.68
2018-07-29T06:16:50.986Z,21.88
2018-07-29T06:21:51.477Z,21.88
2018-07-29T06:26:51.045Z,21.98
2018-07-29T06:31:51.354Z,21.98
2018-07-29T06:36:51.790Z,21.98
2018-07-29T06:41:51.027Z,21.98
2018-07-29T06:46:51.303Z,21.98
2018-07-29T06:51:51.723Z,21.88
2018-07-29T06:56:51.368Z,21.98
2018-07-29T07:01:51.646Z,21.88
2018-07-29T07:06:51.134Z,21.78
2018-07-29T07:11:51.333Z,21.78
2018-07-29T07:16:51.648Z,21.88
2018-07-29T07:21:52.119Z,22.08
2018-07-29T07:26:51.729Z,22.38
2018-07-29T07:31:51.001Z,22.52
2018-07-29T07:36:51.439Z,22.68
2018-07-29T07:41:51.830Z,22.70
2018-07-29T07:46:51.186Z,22.66
2018-07-29T07:51:51.458Z,22.42
2018-07-29T07:56:51.012Z,22.42
2018-07-29T08:01:51.562Z,22.49
2018-07-29T08:06:51.814Z,22.57
2018-07-29T08:11:51.032Z,22.00
2018-07-29T08:16:51.322Z,22.27
2018-07-29T08:21:52.225Z,22.55
2018-07-29T08:26:51.367Z,22.28
2018-07-29T08:31:51.665Z,22.06
2018-07-29T08:36:51.154Z,21.91
2018-07-29T08:41:51.348Z,21.71
2018-07-29T08:46:51.611Z,21.21
2018-07-29T08:51:51.137Z,20.81
2018-07-29T08:56:51.731Z,20.83
2018-07-29T09:01:51.012Z,20.88
2018-07-29T09:06:51.508Z,20.20
2018-07-29T09:11:51.710Z,20.53
2018-07-29T09:16:51.033Z,20.39
2018-07-29T09:21:51.522Z,19.75
2018-07-29T09:26:51.112Z,20.13
2018-07-29T09:31:51.414Z,19.84
2018-07-29T09:36:51.892Z,19.94
2018-07-29T09:41:51.122Z,19.88
2018-07-29T09:46:51.399Z,20.00
2018-07-29T09:51:51.896Z,19.97
2018-07-29T09:56:51.487Z,20.11
2018-07-29T10:01:51.800Z,19.96
2018-07-29T10:06:51.307Z,20.32
2018-07-29T10:11:51.511Z,20.41
2018-07-29T10:16:51.828Z,20.50
2018-07-29T10:21:51.263Z,20.09
2018-07-29T10:26:50.832Z,19.93
2018-07-29T10:31:51.135Z,20.28
2018-07-29T10:36:51.592Z,20.68
2018-07-29T10:41:51.801Z,20.52
2018-07-29T10:46:51.256Z,20.21
2018-07-29T10:51:51.604Z,20.47
2018-07-29T10:56:51.167Z,20.03
2018-07-29T11:01:51.450Z,19.33
2018-07-29T11:06:51.001Z,19.76
2018-07-29T11:11:51.597Z,19.52
2018-07-29T11:16:51.473Z,18.79
2018-07-29T11:21:51.935Z,18.68
2018-07-29T11:26:51.527Z,19.02
2018-07-29T11:31:51.807Z,19.35
2018-07-29T11:36:51.315Z,19.84
2018-07-29T11:41:51.471Z,20.05
2018-07-29T11:46:51.768Z,19.97
2018-07-29T11:51:51.708Z,20.08
2018-07-29T11:56:50.915Z,19.85
2018-07-29T12:01:51.110Z,20.08
2018-07-29T12:06:51.612Z,19.88
2018-07-29T12:11:51.809Z,19.86
2018-07-29T12:16:51.107Z,20.09
2018-07-29T12:21:51.617Z,20.40
2018-07-29T12:26:51.149Z,20.25
2018-07-29T12:31:51.468Z,20.24
2018-07-29T12:36:51.883Z,20.54
2018-07-29T12:41:51.085Z,20.62
2018-07-29T12:46:51.367Z,20.61
2018-07-29T12:51:51.875Z,20.75
2018-07-29T12:56:51.546Z,20.81
2018-07-29T13:01:51.764Z,20.84
2018-07-29T13:06:51.265Z,21.03
2018-07-29T13:11:51.588Z,21.08
2018-07-29T13:16:51.759Z,20.84
2018-07-29T13:21:51.233Z,21.00
2018-07-29T13:26:51.797Z,21.22
2018-07-29T13:31:51.089Z,20.92
2018-07-29T13:36:51.536Z,20.89
2018-07-29T13:41:51.737Z,21.06
2018-07-29T13:46:51.053Z,21.00
2018-07-29T13:51:51.502Z,20.90
2018-07-29T13:56:51.118Z,21.17
2018-07-29T14:01:51.365Z,21.29
2018-07-29T14:06:51.911Z,21.01
2018-07-29T14:11:51.134Z,21.07
2018-07-29T14:16:51.384Z,20.89
2018-07-29T14:21:51.865Z,21.11
2018-07-29T14:26:51.422Z,20.81
2018-07-29T14:31:51.722Z,20.90
2018-07-29T14:36:51.202Z,20.88
2018-07-29T14:41:51.406Z,21.60
2018-07-29T14:46:51.721Z,21.32
2018-07-29T14:51:51.514Z,21.37
2018-07-29T14:56:52.445Z,21.53
2018-07-29T15:01:51.120Z,21.82
2018-07-29T15:06:51.631Z,21.51
2018-07-29T15:11:51.875Z,21.84
2018-07-29T15:16:51.115Z,21.94
2018-07-29T15:21:51.578Z,22.28
2018-07-29T15:26:51.157Z,22.65
2018-07-29T15:31:51.417Z,22.58
2018-07-29T15:36:51.872Z,22.60
2018-07-29T15:41:51.088Z,22.89
2018-07-29T15:46:51.375Z,23.14
2018-07-29T15:51:51.850Z,23.02
2018-07-29T15:56:51.427Z,22.65
2018-07-29T16:01:51.732Z,22.63
2018-07-29T16:06:51.237Z,22.46
2018-07-29T16:11:51.458Z,22.77
2018-07-29T16:16:51.738Z,23.30
2018-07-29T16:21:51.179Z,22.70
2018-07-29T16:26:51.781Z,22.83
2018-07-29T16:31:51.065Z,22.47
2018-07-29T16:36:51.493Z,21.95
2018-07-29T16:41:52.359Z,22.28
2018-07-29T16:46:51.064Z,21.45
2018-07-29T16:51:51.448Z,21.52
2018-07-29T16:56:51.070Z,21.27
2018-07-29T17:01:51.359Z,21.06
2018-07-29T17:06:51.883Z,21.40
2018-07-29T17:11:51.105Z,21.15
2018-07-29T17:16:51.400Z,21.55
2018-07-29T17:21:51.906Z,21.09
2018-07-29T17:26:51.422Z,20.88
2018-07-29T17:31:51.698Z,20.85
2018-07-29T17:36:53.703Z,21.18
2018-07-29T17:41:51.330Z,21.05
2018-07-29T17:46:51.636Z,20.96
2018-07-29T17:51:51.132Z,20.65
2018-07-29T17:56:51.717Z,20.98
2018-07-29T18:01:51.080Z,20.85
2018-07-29T18:06:51.539Z,20.81
2018-07-29T18:11:51.733Z,20.83
2018-07-29T18:16:51.319Z,20.73
2018-07-29T18:21:51.505Z,20.57
2018-07-29T18:26:51.106Z,20.57
2018-07-29T18:31:51.395Z,20.64
2018-07-29T18:36:51.855Z,20.66
2018-07-29T18:41:51.084Z,20.66
2018-07-29T18:46:51.340Z,20.28
2018-07-29T18:51:52.202Z,20.19
2018-07-29T18:56:51.384Z,20.48
2018-07-29T19:01:51.691Z,20.46
2018-07-29T19:06:51.178Z,20.35
2018-07-29T19:11:52.115Z,20.49
2018-07-29T19:16:51.725Z,20.46
2018-07-29T19:21:51.147Z,20.33
2018-07-29T19:26:51.766Z,20.51
2018-07-29T19:31:51.117Z,20.34
2018-07-29T19:36:51.505Z,20.27
2018-07-29T19:41:51.725Z,20.63
2018-07-29T19:46:51.029Z,20.75
2018-07-29T19:51:51.886Z,20.63
2018-07-29T19:56:51.096Z,20.64
2018-07-29T20:01:51.376Z,21.03
2018-07-29T20:06:51.851Z,20.95
2018-07-29T20:11:51.042Z,21.05
2018-07-29T20:16:51.333Z,21.26
2018-07-29T20:21:51.829Z,21.21
2018-07-29T20:26:51.422Z,21.26
2018-07-29T20:31:51.696Z,21.40
2018-07-29T20:36:51.235Z,21.24
2018-07-29T20:41:51.428Z,21.31
2018-07-29T20:46:51.720Z,21.46
2018-07-29T20:51:51.207Z,21.60
2018-07-29T20:56:51.763Z,21.53
2018-07-29T21:01:51.638Z,21.43
2018-07-29T21:06:51.552Z,21.45
2018-07-29T21:11:52.061Z,21.53
2018-07-29T21:16:51.059Z,21.55
2018-07-29T21:21:51.507Z,21.81
2018-07-29T21:26:51.114Z,21.65
2018-07-29T21:31:51.404Z,21.67
2018-07-29T21:36:51.878Z,21.78
2018-07-29T21:41:51.071Z,21.79
2018-07-29T21:46:51.356Z,21.99
2018-07-29T21:51:52.277Z,21.71
2018-07-29T21:56:51.408Z,21.85
2018-07-29T22:01:51.723Z,21.94
2018-07-29T22:06:51.237Z,21.94
2018-07-29T22:11:51.470Z,21.84
2018-07-29T22:16:51.760Z,21.86
2018-07-29T22:21:51.250Z,21.83
2018-07-29T22:26:51.859Z,21.79
2018-07-29T22:31:51.162Z,21.43
2018-07-29T22:36:51.557Z,21.69
2018-07-29T22:41:51.820Z,21.62
2018-07-29T22:46:51.095Z,21.97
2018-07-29T22:51:51.586Z,21.59
2018-07-29T22:56:51.199Z,21.67
2018-07-29T23:01:51.648Z,21.80
2018-07-29T23:06:50.980Z,21.75
2018-07-29T23:11:51.176Z,21.87
2018-07-29T23:16:51.861Z,22.08
2018-07-29T23:21:50.996Z,22.04
2018-07-29T23:26:51.581Z,22.16
2018-07-29T23:31:51.853Z,22.34
2018-07-29T23:36:51.319Z,22.32
2018-07-29T23:41:51.529Z,22.47
2018-07-29T23:46:51.809Z,22.23
2018-07-29T23:51:51.303Z,22.31
2018-07-29T23:56:50.892Z,22.26
